createdAt,value
2023-05-08T00:00:11.269Z,0.00
2023-05-08T00:01:11.131Z,0.00
2023-05-08T00:02:11.093Z,0.00
2023-05-08T00:03:11.236Z,0.00
2023-05-08T00:04:11.280Z,0.00
2023-05-08T00:05:11.171Z,0.00
2023-05-08T00:06:11.085Z,0.00
2023-05-08T00:07:11.092Z,0.00
2023-05-08T00:08:11.080Z,0.00
2023-05-08T00:09:11.117Z,0.00
2023-05-08T00:10:11.336Z,0.00
2023-05-08T00:11:11.096Z,0.00
2023-05-08T00:12:11.080Z,0.00
2023-05-08T00:13:11.118Z,0.00
2023-05-08T00:14:11.082Z,0.00
2023-05-08T00:15:11.095Z,0.00
2023-05-08T00:16:11.117Z,0.00
2023-05-08T00:17:11.084Z,0.00
2023-05-08T00:18:11.086Z,0.00
2023-05-08T00:19:11.088Z,0.00
2023-05-08T00:20:11.373Z,0.00
2023-05-08T00:21:11.097Z,0.00
2023-05-08T00:22:11.094Z,0.00
2023-05-08T00:23:11.082Z,0.00
2023-05-08T00:24:11.118Z,0.00
2023-05-08T00:25:11.127Z,0.00
2023-05-08T00:26:11.116Z,0.00
2023-05-08T00:27:11.086Z,0.00
2023-05-08T00:28:11.095Z,0.00
2023-05-08T00:29:11.086Z,0.00
2023-05-08T00:30:11.383Z,0.00
2023-05-08T00:31:11.092Z,0.00
2023-05-08T00:32:11.093Z,0.00
2023-05-08T00:33:11.171Z,0.00
2023-05-08T00:34:11.094Z,0.00
2023-05-08T00:35:11.086Z,0.00
2023-05-08T00:36:11.100Z,0.00
2023-05-08T00:37:11.091Z,0.00
2023-05-08T00:38:11.094Z,0.00
2023-05-08T00:39:11.088Z,0.00
2023-05-08T00:40:11.394Z,0.00
2023-05-08T00:41:11.085Z,0.00
2023-05-08T00:42:11.081Z,0.00
2023-05-08T00:43:11.094Z,0.00
2023-05-08T00:44:11.087Z,0.00
2023-05-08T00:45:11.084Z,0.00
2023-05-08T00:46:11.096Z,0.00
2023-05-08T00:47:11.088Z,0.00
2023-05-08T00:48:11.100Z,0.00
2023-05-08T00:49:11.095Z,0.00
2023-05-08T00:50:11.249Z,0.00
2023-05-08T00:51:11.088Z,0.00
2023-05-08T00:52:12.095Z,0.00
2023-05-08T00:53:11.087Z,0.00
2023-05-08T00:54:11.088Z,0.00
2023-05-08T00:55:11.101Z,0.00
2023-05-08T00:56:12.088Z,0.00
2023-05-08T00:57:11.083Z,0.00
2023-05-08T00:58:11.086Z,0.00
2023-05-08T00:59:11.089Z,0.00
2023-05-08T01:00:11.268Z,0.00
2023-05-08T01:01:11.097Z,0.00
2023-05-08T01:02:11.134Z,0.00
2023-05-08T01:03:11.182Z,0.00
2023-05-08T01:04:11.066Z,0.00
2023-05-08T01:05:11.066Z,0.00
2023-05-08T01:06:11.064Z,0.00
2023-05-08T01:07:11.059Z,0.00
2023-05-08T01:08:11.071Z,0.00
2023-05-08T01:09:11.078Z,0.00
2023-05-08T01:10:11.292Z,0.00
2023-05-08T01:11:19.066Z,0.00
2023-05-08T01:12:19.063Z,0.00
2023-05-08T01:13:19.214Z,0.00
2023-05-08T01:14:19.072Z,0.00
2023-05-08T01:15:19.070Z,0.00
2023-05-08T01:16:16.180Z,0.00
2023-05-08T01:17:20.079Z,0.00
2023-05-08T01:18:19.079Z,0.00
2023-05-08T01:19:19.088Z,0.00
2023-05-08T01:20:19.066Z,0.00
2023-05-08T01:21:19.075Z,0.00
2023-05-08T01:22:19.068Z,0.00
2023-05-08T01:23:19.074Z,0.00
2023-05-08T01:24:19.108Z,0.00
2023-05-08T01:25:19.069Z,0.00
2023-05-08T01:26:19.086Z,0.00
2023-05-08T01:27:19.076Z,0.00
2023-05-08T01:28:19.073Z,0.00
2023-05-08T01:29:19.080Z,0.00
2023-05-08T01:30:21.065Z,0.00
2023-05-08T01:31:19.077Z,0.00
2023-05-08T01:32:19.084Z,0.00
2023-05-08T01:33:15.168Z,0.00
2023-05-08T01:34:16.077Z,0.00
2023-05-08T01:35:19.069Z,0.00
2023-05-08T01:36:19.084Z,0.00
2023-05-08T01:37:14.081Z,0.00
2023-05-08T01:38:23.079Z,0.00
2023-05-08T01:39:19.080Z,0.00
2023-05-08T01:40:17.112Z,0.00
2023-05-08T01:41:15.073Z,0.00
2023-05-08T01:42:21.077Z,0.00
2023-05-08T01:43:20.078Z,0.00
2023-05-08T01:44:21.086Z,0.00
2023-05-08T01:45:18.067Z,0.00
2023-05-08T01:46:18.100Z,0.00
2023-05-08T01:47:11.097Z,0.00
2023-05-08T01:48:15.067Z,0.00
2023-05-08T01:49:12.065Z,0.00
2023-05-08T01:50:18.079Z,0.00
2023-05-08T01:51:15.073Z,0.00
2023-05-08T01:52:20.068Z,0.00
2023-05-08T01:53:21.070Z,0.00
2023-05-08T01:54:14.079Z,0.00
2023-05-08T01:55:17.074Z,0.00
2023-05-08T01:56:12.080Z,0.00
2023-05-08T01:57:11.080Z,0.00
2023-05-08T01:58:11.085Z,0.00
2023-05-08T01:59:12.071Z,0.00
2023-05-08T02:00:11.189Z,0.00
2023-05-08T02:01:12.093Z,0.00
2023-05-08T02:02:11.132Z,0.00
2023-05-08T02:03:11.148Z,0.00
2023-05-08T02:04:11.133Z,0.00
2023-05-08T02:05:11.071Z,0.00
2023-05-08T02:06:12.081Z,0.00
2023-05-08T02:07:11.074Z,0.00
2023-05-08T02:08:11.079Z,0.00
2023-05-08T02:09:11.073Z,0.00
2023-05-08T02:10:11.413Z,0.00
2023-05-08T02:11:11.072Z,0.00
2023-05-08T02:12:11.072Z,0.00
2023-05-08T02:13:11.145Z,0.00
2023-05-08T02:14:11.073Z,0.00
2023-05-08T02:15:12.096Z,0.00
2023-05-08T02:16:11.092Z,0.00
2023-05-08T02:17:11.077Z,0.00
2023-05-08T02:18:11.076Z,0.00
2023-05-08T02:19:11.085Z,0.00
2023-05-08T02:20:11.241Z,0.00
2023-05-08T02:21:12.075Z,0.00
2023-05-08T02:22:11.077Z,0.00
2023-05-08T02:23:11.072Z,0.00
2023-05-08T02:24:11.077Z,0.00
2023-05-08T02:25:11.077Z,0.00
2023-05-08T02:26:11.075Z,0.00
2023-05-08T02:27:11.077Z,0.00
2023-05-08T02:28:11.078Z,0.00
2023-05-08T02:29:11.072Z,0.00
2023-05-08T02:30:11.258Z,0.00
2023-05-08T02:31:13.086Z,0.00
2023-05-08T02:32:11.147Z,0.00
2023-05-08T02:33:11.127Z,0.00
2023-05-08T02:34:11.081Z,0.00
2023-05-08T02:35:14.075Z,0.00
2023-05-08T02:36:11.082Z,0.00
2023-05-08T02:37:11.079Z,0.00
2023-05-08T02:38:15.075Z,0.00
2023-05-08T02:39:13.090Z,0.00
2023-05-08T02:40:11.293Z,0.00
2023-05-08T02:41:11.076Z,0.00
2023-05-08T02:42:11.075Z,0.00
2023-05-08T02:43:11.081Z,0.00
2023-05-08T02:44:11.076Z,0.00
2023-05-08T02:45:11.083Z,0.00
2023-05-08T02:46:18.127Z,0.00
2023-05-08T02:47:21.106Z,0.00
2023-05-08T02:48:21.096Z,0.00
2023-05-08T02:49:18.081Z,0.00
2023-05-08T02:50:20.094Z,0.00
2023-05-08T02:51:18.095Z,0.00
2023-05-08T02:52:21.080Z,0.00
2023-05-08T02:53:16.077Z,0.00
2023-05-08T02:54:14.083Z,0.00
2023-05-08T02:55:21.083Z,0.00
2023-05-08T02:56:16.074Z,0.00
2023-05-08T02:57:19.089Z,0.00
2023-05-08T02:58:19.087Z,0.00
2023-05-08T02:59:19.105Z,0.00
2023-05-08T03:00:19.076Z,0.00
2023-05-08T03:01:19.121Z,0.00
2023-05-08T03:02:16.149Z,0.00
2023-05-08T03:03:19.151Z,0.00
2023-05-08T03:04:12.083Z,0.00
2023-05-08T03:05:17.080Z,0.00
2023-05-08T03:06:13.084Z,0.00
2023-05-08T03:07:11.099Z,0.00
2023-05-08T03:08:15.074Z,0.00
2023-05-08T03:09:18.098Z,0.00
2023-05-08T03:10:13.331Z,0.00
2023-05-08T03:11:17.073Z,0.00
2023-05-08T03:12:16.101Z,0.00
2023-05-08T03:13:11.125Z,0.00
2023-05-08T03:14:14.078Z,0.00
2023-05-08T03:15:19.081Z,0.00
2023-05-08T03:16:16.103Z,0.00
2023-05-08T03:17:12.078Z,0.00
2023-05-08T03:18:16.073Z,0.00
2023-05-08T03:19:19.986Z,0.00
2023-05-08T03:20:12.348Z,0.00
2023-05-08T03:21:11.086Z,0.00
2023-05-08T03:22:11.082Z,0.00
2023-05-08T03:23:11.099Z,0.00
2023-05-08T03:24:11.079Z,0.00
2023-05-08T03:25:11.077Z,0.00
2023-05-08T03:26:11.090Z,0.00
2023-05-08T03:27:11.078Z,0.00
2023-05-08T03:28:11.081Z,0.00
2023-05-08T03:29:11.099Z,0.00
2023-05-08T03:30:11.324Z,0.00
2023-05-08T03:31:11.122Z,0.00
2023-05-08T03:32:11.079Z,0.00
2023-05-08T03:33:11.075Z,0.00
2023-05-08T03:34:11.081Z,0.00
2023-05-08T03:35:11.092Z,0.00
2023-05-08T03:36:11.076Z,0.00
2023-05-08T03:37:11.085Z,0.00
2023-05-08T03:38:11.086Z,0.00
2023-05-08T03:39:11.077Z,0.00
2023-05-08T03:40:11.235Z,0.00
2023-05-08T03:41:11.083Z,0.00
2023-05-08T03:42:11.076Z,0.00
2023-05-08T03:43:11.077Z,0.00
2023-05-08T03:44:11.090Z,0.00
2023-05-08T03:45:11.080Z,0.00
2023-05-08T03:46:12.096Z,0.00
2023-05-08T03:47:11.119Z,0.00
2023-05-08T03:48:11.130Z,0.00
2023-05-08T03:49:11.080Z,0.00
2023-05-08T03:50:11.294Z,0.00
2023-05-08T03:51:11.078Z,0.00
2023-05-08T03:52:11.095Z,0.00
2023-05-08T03:53:11.084Z,0.00
2023-05-08T03:54:11.080Z,0.00
2023-05-08T03:55:11.097Z,0.00
2023-05-08T03:56:11.092Z,0.00
2023-05-08T03:57:11.080Z,0.00
2023-05-08T03:58:20.101Z,0.00
2023-05-08T03:59:16.091Z,0.00
2023-05-08T04:00:21.085Z,0.00
2023-05-08T04:01:17.073Z,0.00
2023-05-08T04:02:19.128Z,0.00
2023-05-08T04:03:22.139Z,0.00
2023-05-08T04:04:21.088Z,0.00
2023-05-08T04:05:20.062Z,0.00
2023-05-08T04:06:16.067Z,0.00
2023-05-08T04:07:19.063Z,0.00
2023-05-08T04:08:19.121Z,0.00
2023-05-08T04:09:17.063Z,0.00
2023-05-08T04:10:21.065Z,0.00
2023-05-08T04:11:19.075Z,0.00
2023-05-08T04:12:19.075Z,0.00
2023-05-08T04:13:19.143Z,0.00
2023-05-08T04:14:16.072Z,0.00
2023-05-08T04:15:18.084Z,0.00
2023-05-08T04:16:19.092Z,0.00
2023-05-08T04:17:14.078Z,0.00
2023-05-08T04:18:12.100Z,0.00
2023-05-08T04:19:19.072Z,0.00
2023-05-08T04:20:13.069Z,0.00
2023-05-08T04:21:11.070Z,0.00
2023-05-08T04:22:11.073Z,0.00
2023-05-08T04:23:13.073Z,0.00
2023-05-08T04:24:12.071Z,0.00
2023-05-08T04:25:11.409Z,0.00
2023-05-08T04:26:11.070Z,0.00
2023-05-08T04:27:11.082Z,0.00
2023-05-08T04:28:11.071Z,0.00
2023-05-08T04:29:11.075Z,0.00
2023-05-08T04:30:11.079Z,0.00
2023-05-08T04:31:11.074Z,0.00
2023-05-08T04:32:11.108Z,0.00
2023-05-08T04:33:11.131Z,0.00
2023-05-08T04:34:11.069Z,0.00
2023-05-08T04:35:11.263Z,0.00
2023-05-08T04:36:13.081Z,0.00
2023-05-08T04:37:15.086Z,0.00
2023-05-08T04:38:11.081Z,0.00
2023-05-08T04:39:11.080Z,0.00
2023-05-08T04:40:11.078Z,0.00
2023-05-08T04:41:11.172Z,0.01
2023-05-08T04:42:11.083Z,0.00
2023-05-08T04:43:11.080Z,0.00
2023-05-08T04:44:11.074Z,0.00
2023-05-08T04:45:11.274Z,0.01
2023-05-08T04:46:11.121Z,0.01
2023-05-08T04:47:11.072Z,0.01
2023-05-08T04:48:11.096Z,0.01
2023-05-08T04:49:11.077Z,0.01
2023-05-08T04:50:11.093Z,0.01
2023-05-08T04:51:11.101Z,0.01
2023-05-08T04:52:11.097Z,0.01
2023-05-08T04:53:11.076Z,0.01
2023-05-08T04:54:11.091Z,0.01
2023-05-08T04:55:11.274Z,0.01
2023-05-08T04:56:11.075Z,0.01
2023-05-08T04:57:11.088Z,0.02
2023-05-08T04:58:11.080Z,0.02
2023-05-08T04:59:11.072Z,0.02
2023-05-08T05:00:11.084Z,0.02
2023-05-08T05:01:11.085Z,0.02
2023-05-08T05:02:12.079Z,0.02
2023-05-08T05:03:11.201Z,0.03
2023-05-08T05:04:11.098Z,0.03
2023-05-08T05:05:11.364Z,0.03
2023-05-08T05:06:11.082Z,0.03
2023-05-08T05:07:11.073Z,0.02
2023-05-08T05:08:11.078Z,0.03
2023-05-08T05:09:11.085Z,0.03
2023-05-08T05:10:11.074Z,0.03
2023-05-08T05:11:11.080Z,0.03
2023-05-08T05:12:11.090Z,0.02
2023-05-08T05:13:11.180Z,0.03
2023-05-08T05:14:11.083Z,0.03
2023-05-08T05:15:11.256Z,0.03
2023-05-08T05:16:11.175Z,0.03
2023-05-08T05:17:11.077Z,0.03
2023-05-08T05:18:11.100Z,0.03
2023-05-08T05:19:11.078Z,0.03
2023-05-08T05:20:11.080Z,0.03
2023-05-08T05:21:11.079Z,0.03
2023-05-08T05:22:11.077Z,0.03
2023-05-08T05:23:11.073Z,0.03
2023-05-08T05:24:11.082Z,0.03
2023-05-08T05:25:11.496Z,0.03
2023-05-08T05:26:11.076Z,0.03
2023-05-08T05:27:11.083Z,0.03
2023-05-08T05:28:11.081Z,0.03
2023-05-08T05:29:11.080Z,0.03
2023-05-08T05:30:11.284Z,0.03
2023-05-08T05:31:11.083Z,0.03
2023-05-08T05:32:13.079Z,0.03
2023-05-08T05:33:11.087Z,0.04
2023-05-08T05:34:11.071Z,0.04
2023-05-08T05:35:11.287Z,0.04
2023-05-08T05:36:11.084Z,0.04
2023-05-08T05:37:11.080Z,0.05
2023-05-08T05:38:11.080Z,0.04
2023-05-08T05:39:11.083Z,0.04
2023-05-08T05:40:11.075Z,0.04
2023-05-08T05:41:11.076Z,0.04
2023-05-08T05:42:11.080Z,0.05
2023-05-08T05:43:11.080Z,0.05
2023-05-08T05:44:11.076Z,0.04
2023-05-08T05:45:11.402Z,0.04
2023-05-08T05:46:11.086Z,0.05
2023-05-08T05:47:11.200Z,0.04
2023-05-08T05:48:11.127Z,0.03
2023-05-08T05:49:11.072Z,0.04
2023-05-08T05:50:11.229Z,0.05
2023-05-08T05:51:11.076Z,0.05
2023-05-08T05:52:11.074Z,0.05
2023-05-08T05:53:11.094Z,0.06
2023-05-08T05:54:11.083Z,0.06
2023-05-08T05:55:11.252Z,0.06
2023-05-08T05:56:11.078Z,0.06
2023-05-08T05:57:11.100Z,0.06
2023-05-08T05:58:11.076Z,0.06
2023-05-08T05:59:11.080Z,0.06
2023-05-08T06:00:11.074Z,0.05
2023-05-08T06:01:11.079Z,0.06
2023-05-08T06:02:11.109Z,0.06
2023-05-08T06:03:11.218Z,0.05
2023-05-08T06:04:11.193Z,0.05
2023-05-08T06:05:11.385Z,0.06
2023-05-08T06:06:11.084Z,0.06
2023-05-08T06:07:11.083Z,0.06
2023-05-08T06:08:11.091Z,0.06
2023-05-08T06:09:12.080Z,0.06
2023-05-08T06:10:11.127Z,0.06
2023-05-08T06:11:11.082Z,0.06
2023-05-08T06:12:11.079Z,0.07
2023-05-08T06:13:11.150Z,0.06
2023-05-08T06:14:11.090Z,0.07
2023-05-08T06:15:11.427Z,0.07
2023-05-08T06:16:11.080Z,0.07
2023-05-08T06:17:11.144Z,0.07
2023-05-08T06:18:11.146Z,0.07
2023-05-08T06:19:11.075Z,0.07
2023-05-08T06:20:11.087Z,0.07
2023-05-08T06:21:11.083Z,0.07
2023-05-08T06:22:11.088Z,0.07
2023-05-08T06:23:11.089Z,0.08
2023-05-08T06:24:11.080Z,0.08
2023-05-08T06:25:11.326Z,0.08
2023-05-08T06:26:11.079Z,0.09
2023-05-08T06:27:11.080Z,0.09
2023-05-08T06:28:11.076Z,0.08
2023-05-08T06:29:11.097Z,0.07
2023-05-08T06:30:12.080Z,0.07
2023-05-08T06:31:11.157Z,0.07
2023-05-08T06:32:11.084Z,0.08
2023-05-08T06:33:11.089Z,0.08
2023-05-08T06:34:11.088Z,0.08
2023-05-08T06:35:11.175Z,0.08
2023-05-08T06:36:11.088Z,0.08
2023-05-08T06:37:11.100Z,0.09
2023-05-08T06:38:11.093Z,0.09
2023-05-08T06:39:11.082Z,0.10
2023-05-08T06:40:12.553Z,0.10
2023-05-08T06:41:12.033Z,0.10
2023-05-08T06:42:11.091Z,0.10
2023-05-08T06:43:11.085Z,0.10
2023-05-08T06:44:11.094Z,0.10
2023-05-08T06:45:11.381Z,0.11
2023-05-08T06:46:11.129Z,0.10
2023-05-08T06:47:11.087Z,0.11
2023-05-08T06:48:11.098Z,0.10
2023-05-08T06:49:11.084Z,0.11
2023-05-08T06:50:11.098Z,0.10
2023-05-08T06:51:11.085Z,0.10
2023-05-08T06:52:11.080Z,0.10
2023-05-08T06:53:11.111Z,0.10
2023-05-08T06:54:12.108Z,0.10
2023-05-08T06:55:11.312Z,0.10
2023-05-08T06:56:11.094Z,0.10
2023-05-08T06:57:12.011Z,0.10
2023-05-08T06:58:11.091Z,0.09
2023-05-08T06:59:11.087Z,0.10
2023-05-08T07:00:11.090Z,0.10
2023-05-08T07:01:11.081Z,0.10
2023-05-08T07:02:11.293Z,0.09
2023-05-08T07:03:11.111Z,0.09
2023-05-08T07:04:11.093Z,0.10
2023-05-08T07:05:11.301Z,0.10
2023-05-08T07:06:11.064Z,0.10
2023-05-08T07:07:11.060Z,0.10
2023-05-08T07:08:11.066Z,0.09
2023-05-08T07:09:11.066Z,0.09
2023-05-08T07:10:11.059Z,0.10
2023-05-08T07:11:11.104Z,0.09
2023-05-08T07:12:11.066Z,0.09
2023-05-08T07:13:11.101Z,0.10
2023-05-08T07:14:11.068Z,0.10
2023-05-08T07:15:24.887Z,0.10
2023-05-08T07:16:14.401Z,0.11
2023-05-08T07:17:13.090Z,0.11
2023-05-08T07:18:11.096Z,0.13
2023-05-08T07:19:11.064Z,0.12
2023-05-08T07:20:11.064Z,0.11
2023-05-08T07:21:11.071Z,0.10
2023-05-08T07:22:11.130Z,0.11
2023-05-08T07:23:11.068Z,0.10
2023-05-08T07:24:11.067Z,0.10
2023-05-08T07:25:11.300Z,0.11
2023-05-08T07:26:11.069Z,0.11
2023-05-08T07:27:11.069Z,0.13
2023-05-08T07:28:11.077Z,0.12
2023-05-08T07:29:11.074Z,0.12
2023-05-08T07:30:11.068Z,0.13
2023-05-08T07:31:12.151Z,0.13
2023-05-08T07:32:11.076Z,0.14
2023-05-08T07:33:11.071Z,0.14
2023-05-08T07:34:11.068Z,0.14
2023-05-08T07:35:12.276Z,0.13
2023-05-08T07:36:11.066Z,0.13
2023-05-08T07:37:11.065Z,0.13
2023-05-08T07:38:11.070Z,0.13
2023-05-08T07:39:11.072Z,0.13
2023-05-08T07:40:11.067Z,0.13
2023-05-08T07:41:11.135Z,0.13
2023-05-08T07:42:11.068Z,0.13
2023-05-08T07:43:11.071Z,0.14
2023-05-08T07:44:11.076Z,0.13
2023-05-08T07:45:11.204Z,0.13
2023-05-08T07:46:15.086Z,0.13
2023-05-08T07:47:11.174Z,0.14
2023-05-08T07:48:11.147Z,0.13
2023-05-08T07:49:11.067Z,0.13
2023-05-08T07:50:11.073Z,0.14
2023-05-08T07:51:11.075Z,0.14
2023-05-08T07:52:11.080Z,0.14
2023-05-08T07:53:11.107Z,0.15
2023-05-08T07:54:11.077Z,0.14
2023-05-08T07:55:11.334Z,0.14
2023-05-08T07:56:11.090Z,0.14
2023-05-08T07:57:11.072Z,0.14
2023-05-08T07:58:11.064Z,0.15
2023-05-08T07:59:11.078Z,0.14
2023-05-08T08:00:14.084Z,0.15
2023-05-08T08:01:11.065Z,0.15
2023-05-08T08:02:11.125Z,0.16
2023-05-08T08:03:11.115Z,0.17
2023-05-08T08:04:12.795Z,0.17
2023-05-08T08:05:11.416Z,0.18
2023-05-08T08:06:11.075Z,0.18
2023-05-08T08:07:11.074Z,0.18
2023-05-08T08:08:11.073Z,0.18
2023-05-08T08:09:11.068Z,0.18
2023-05-08T08:10:11.110Z,0.17
2023-05-08T08:11:11.076Z,0.17
2023-05-08T08:12:11.073Z,0.17
2023-05-08T08:13:11.090Z,0.16
2023-05-08T08:14:11.077Z,0.17
2023-05-08T08:15:11.384Z,0.16
2023-05-08T08:16:11.088Z,0.18
2023-05-08T08:17:11.203Z,0.16
2023-05-08T08:18:11.137Z,0.15
2023-05-08T08:19:11.078Z,0.16
2023-05-08T08:20:11.080Z,0.15
2023-05-08T08:21:11.085Z,0.15
2023-05-08T08:22:11.072Z,0.16
2023-05-08T08:23:11.092Z,0.16
2023-05-08T08:24:11.120Z,0.16
2023-05-08T08:25:11.203Z,0.18
2023-05-08T08:26:11.077Z,0.17
2023-05-08T08:27:11.085Z,0.17
2023-05-08T08:28:11.070Z,0.18
2023-05-08T08:29:11.108Z,0.20
2023-05-08T08:30:17.728Z,0.19
2023-05-08T08:31:13.144Z,0.19
2023-05-08T08:32:11.074Z,0.19
2023-05-08T08:33:11.095Z,0.20
2023-05-08T08:34:11.070Z,0.20
2023-05-08T08:35:11.359Z,0.19
2023-05-08T08:36:15.075Z,0.19
2023-05-08T08:37:12.396Z,0.19
2023-05-08T08:38:11.073Z,0.19
2023-05-08T08:39:12.575Z,0.19
2023-05-08T08:40:11.071Z,0.17
2023-05-08T08:41:13.071Z,0.21
2023-05-08T08:42:11.082Z,0.21
2023-05-08T08:43:11.079Z,0.18
2023-05-08T08:44:11.074Z,0.18
2023-05-08T08:45:11.391Z,0.18
2023-05-08T08:46:13.160Z,0.17
2023-05-08T08:47:12.075Z,0.19
2023-05-08T08:48:12.144Z,0.20
2023-05-08T08:49:13.080Z,0.19
2023-05-08T08:50:14.262Z,0.20
2023-05-08T08:51:20.084Z,0.20
2023-05-08T08:52:17.081Z,0.19
2023-05-08T08:53:16.078Z,0.20
2023-05-08T08:54:15.075Z,0.20
2023-05-08T08:55:11.520Z,0.19
2023-05-08T08:56:11.080Z,0.20
2023-05-08T08:57:11.079Z,0.19
2023-05-08T08:58:19.096Z,0.20
2023-05-08T08:59:11.080Z,0.20
2023-05-08T09:00:11.120Z,0.21
2023-05-08T09:01:14.086Z,0.19
2023-05-08T09:02:13.287Z,0.17
2023-05-08T09:03:12.125Z,0.18
2023-05-08T09:04:11.172Z,0.16
2023-05-08T09:05:11.395Z,0.19
2023-05-08T09:06:11.080Z,0.19
2023-05-08T09:07:12.107Z,0.18
2023-05-08T09:08:11.085Z,0.16
2023-05-08T09:09:11.075Z,0.16
2023-05-08T09:10:11.082Z,0.18
2023-05-08T09:11:11.085Z,0.15
2023-05-08T09:12:11.084Z,0.15
2023-05-08T09:13:11.116Z,0.14
2023-05-08T09:14:11.077Z,0.13
2023-05-08T09:15:11.159Z,0.15
2023-05-08T09:16:11.106Z,0.15
2023-05-08T09:17:11.082Z,0.16
2023-05-08T09:18:11.170Z,0.18
2023-05-08T09:19:13.083Z,0.19
2023-05-08T09:20:11.422Z,0.21
2023-05-08T09:21:11.080Z,0.23
2023-05-08T09:22:13.082Z,0.21
2023-05-08T09:23:11.081Z,0.22
2023-05-08T09:24:11.089Z,0.24
2023-05-08T09:25:11.228Z,0.25
2023-05-08T09:26:11.092Z,0.27
2023-05-08T09:27:20.084Z,0.27
2023-05-08T09:28:19.107Z,0.28
2023-05-08T09:29:15.084Z,0.30
2023-05-08T09:30:11.090Z,0.30
2023-05-08T09:31:11.136Z,0.30
2023-05-08T09:32:18.107Z,0.33
2023-05-08T09:33:11.142Z,0.31
2023-05-08T09:34:11.092Z,0.32
2023-05-08T09:35:11.357Z,0.34
2023-05-08T09:36:19.081Z,0.29
2023-05-08T09:37:13.080Z,0.31
2023-05-08T09:38:15.086Z,0.31
2023-05-08T09:39:13.098Z,0.29
2023-05-08T09:40:18.082Z,0.24
2023-05-08T09:41:14.091Z,0.25
2023-05-08T09:42:11.096Z,0.22
2023-05-08T09:43:15.082Z,0.23
2023-05-08T09:44:11.080Z,0.24
2023-05-08T09:45:11.522Z,0.24
2023-05-08T09:46:19.293Z,0.22
2023-05-08T09:47:13.086Z,0.24
2023-05-08T09:48:11.130Z,0.23
2023-05-08T09:49:16.104Z,0.22
2023-05-08T09:50:11.177Z,0.20
2023-05-08T09:51:11.092Z,0.19
2023-05-08T09:52:15.136Z,0.18
2023-05-08T09:53:11.082Z,0.19
2023-05-08T09:54:17.089Z,0.19
2023-05-08T09:55:11.109Z,0.18
2023-05-08T09:56:11.088Z,0.18
2023-05-08T09:57:13.104Z,0.19
2023-05-08T09:58:11.093Z,0.20
2023-05-08T09:59:19.158Z,0.21
2023-05-08T10:00:11.316Z,0.21
2023-05-08T10:01:15.104Z,0.22
2023-05-08T10:02:13.062Z,0.19
2023-05-08T10:03:11.079Z,0.22
2023-05-08T10:04:11.087Z,0.21
2023-05-08T10:05:19.097Z,0.21
2023-05-08T10:06:15.058Z,0.21
2023-05-08T10:07:11.068Z,0.19
2023-05-08T10:08:19.062Z,0.19
2023-05-08T10:09:15.075Z,0.18
2023-05-08T10:10:11.231Z,0.21
2023-05-08T10:11:15.070Z,0.20
2023-05-08T10:12:11.067Z,0.20
2023-05-08T10:13:11.124Z,0.23
2023-05-08T10:14:11.065Z,0.22
2023-05-08T10:15:11.094Z,0.21
2023-05-08T10:16:15.113Z,0.22
2023-05-08T10:17:11.184Z,0.23
2023-05-08T10:18:11.128Z,0.21
2023-05-08T10:19:18.062Z,0.21
2023-05-08T10:20:11.185Z,0.23
2023-05-08T10:21:11.065Z,0.22
2023-05-08T10:22:13.063Z,0.23
2023-05-08T10:23:15.082Z,0.25
2023-05-08T10:24:20.070Z,0.25
2023-05-08T10:25:15.061Z,0.24
2023-05-08T10:26:14.067Z,0.23
2023-05-08T10:27:17.078Z,0.26
2023-05-08T10:28:21.069Z,0.25
2023-05-08T10:29:16.065Z,0.25
2023-05-08T10:30:12.360Z,0.23
2023-05-08T10:31:13.120Z,0.22
2023-05-08T10:32:16.067Z,0.25
2023-05-08T10:33:11.229Z,0.22
2023-05-08T10:34:13.070Z,0.20
2023-05-08T10:35:11.077Z,0.20
2023-05-08T10:36:11.077Z,0.21
2023-05-08T10:37:11.101Z,0.24
2023-05-08T10:38:11.071Z,0.24
2023-05-08T10:39:11.068Z,0.20
2023-05-08T10:40:11.332Z,0.21
2023-05-08T10:41:11.069Z,0.18
2023-05-08T10:42:11.072Z,0.17
2023-05-08T10:43:11.066Z,0.19
2023-05-08T10:44:11.070Z,0.19
2023-05-08T10:45:11.086Z,0.20
2023-05-08T10:46:16.155Z,0.23
2023-05-08T10:47:19.071Z,0.23
2023-05-08T10:48:19.067Z,0.30
2023-05-08T10:49:19.075Z,0.29
2023-05-08T10:50:21.074Z,0.29
2023-05-08T10:51:18.081Z,0.26
2023-05-08T10:52:19.081Z,0.23
2023-05-08T10:53:17.070Z,0.21
2023-05-08T10:54:19.071Z,0.23
2023-05-08T10:55:19.082Z,0.24
2023-05-08T10:56:11.072Z,0.24
2023-05-08T10:57:11.074Z,0.20
2023-05-08T10:58:15.114Z,0.19
2023-05-08T10:59:18.084Z,0.23
2023-05-08T11:00:11.109Z,0.22
2023-05-08T11:01:13.155Z,0.20
2023-05-08T11:02:11.201Z,0.19
2023-05-08T11:03:20.120Z,0.17
2023-05-08T11:04:21.261Z,0.21
2023-05-08T11:05:15.076Z,0.24
2023-05-08T11:06:11.075Z,0.28
2023-05-08T11:07:11.070Z,0.29
2023-05-08T11:08:15.070Z,0.31
2023-05-08T11:09:14.072Z,0.30
2023-05-08T11:10:15.220Z,0.25
2023-05-08T11:11:17.071Z,0.22
2023-05-08T11:12:19.072Z,0.22
2023-05-08T11:13:11.094Z,0.22
2023-05-08T11:14:16.082Z,0.20
2023-05-08T11:15:11.071Z,0.20
2023-05-08T11:16:15.103Z,0.23
2023-05-08T11:17:11.068Z,0.27
2023-05-08T11:18:16.083Z,0.25
2023-05-08T11:19:17.147Z,0.23
2023-05-08T11:20:11.128Z,0.22
2023-05-08T11:21:15.077Z,0.24
2023-05-08T11:22:16.084Z,0.25
2023-05-08T11:23:19.077Z,0.28
2023-05-08T11:24:12.068Z,0.32
2023-05-08T11:25:13.082Z,0.32
2023-05-08T11:26:16.079Z,0.34
2023-05-08T11:27:11.070Z,0.30
2023-05-08T11:28:13.070Z,0.25
2023-05-08T11:29:17.080Z,0.29
2023-05-08T11:30:19.081Z,0.27
2023-05-08T11:31:11.095Z,0.27
2023-05-08T11:32:11.079Z,0.28
2023-05-08T11:33:15.081Z,0.30
2023-05-08T11:34:19.079Z,0.31
2023-05-08T11:35:15.071Z,0.31
2023-05-08T11:36:17.073Z,0.31
2023-05-08T11:37:18.082Z,0.28
2023-05-08T11:38:17.075Z,0.27
2023-05-08T11:39:11.074Z,0.25
2023-05-08T11:40:19.082Z,0.23
2023-05-08T11:41:11.109Z,0.19
2023-05-08T11:42:19.073Z,0.17
2023-05-08T11:43:19.083Z,0.15
2023-05-08T11:44:20.133Z,0.14
2023-05-08T11:45:13.083Z,0.15
2023-05-08T11:46:15.078Z,0.16
2023-05-08T11:47:15.163Z,0.19
2023-05-08T11:48:14.143Z,0.21
2023-05-08T11:49:13.080Z,0.22
2023-05-08T11:50:11.311Z,0.24
2023-05-08T11:51:11.094Z,0.21
2023-05-08T11:52:11.080Z,0.21
2023-05-08T11:53:11.073Z,0.25
2023-05-08T11:54:14.094Z,0.29
2023-05-08T11:55:11.096Z,0.27
2023-05-08T11:56:11.075Z,0.22
2023-05-08T11:57:11.081Z,0.20
2023-05-08T11:58:17.079Z,0.20
2023-05-08T11:59:11.078Z,0.20
2023-05-08T12:00:13.576Z,0.19
2023-05-08T12:01:11.150Z,0.14
2023-05-08T12:02:11.144Z,0.13
2023-05-08T12:03:16.272Z,0.13
2023-05-08T12:04:11.399Z,0.13
2023-05-08T12:05:11.514Z,0.12
2023-05-08T12:06:12.460Z,0.10
2023-05-08T12:07:11.083Z,0.08
2023-05-08T12:08:11.083Z,0.08
2023-05-08T12:09:18.095Z,0.09
2023-05-08T12:10:11.175Z,0.12
2023-05-08T12:11:11.092Z,0.14
2023-05-08T12:12:11.096Z,0.12
2023-05-08T12:13:19.136Z,0.14
2023-05-08T12:14:11.097Z,0.17
2023-05-08T12:15:11.081Z,0.18
2023-05-08T12:16:11.084Z,0.24
2023-05-08T12:17:11.237Z,0.20
2023-05-08T12:18:11.116Z,0.20
2023-05-08T12:19:14.151Z,0.19
2023-05-08T12:20:13.336Z,0.23
2023-05-08T12:21:11.085Z,0.24
2023-05-08T12:22:11.079Z,0.23
2023-05-08T12:23:11.095Z,0.23
2023-05-08T12:24:12.084Z,0.30
2023-05-08T12:25:11.408Z,0.29
2023-05-08T12:26:11.083Z,0.26
2023-05-08T12:27:12.084Z,0.27
2023-05-08T12:28:11.084Z,0.25
2023-05-08T12:29:11.085Z,0.22
2023-05-08T12:30:13.367Z,0.21
2023-05-08T12:31:11.122Z,0.20
2023-05-08T12:32:11.080Z,0.18
2023-05-08T12:33:11.122Z,0.16
2023-05-08T12:34:11.087Z,0.15
2023-05-08T12:35:11.093Z,0.13
2023-05-08T12:36:11.085Z,0.13
2023-05-08T12:37:11.086Z,0.12
2023-05-08T12:38:11.083Z,0.11
2023-05-08T12:39:17.082Z,0.11
2023-05-08T12:40:19.089Z,0.12
2023-05-08T12:41:12.088Z,0.11
2023-05-08T12:42:11.087Z,0.11
2023-05-08T12:43:11.085Z,0.11
2023-05-08T12:44:17.094Z,0.10
2023-05-08T12:45:15.090Z,0.11
2023-05-08T12:46:12.167Z,0.11
2023-05-08T12:47:11.085Z,0.11
2023-05-08T12:48:14.114Z,0.12
2023-05-08T12:49:14.108Z,0.10
2023-05-08T12:50:11.285Z,0.09
2023-05-08T12:51:12.088Z,0.09
2023-05-08T12:52:12.108Z,0.09
2023-05-08T12:53:14.087Z,0.09
2023-05-08T12:54:11.098Z,0.10
2023-05-08T12:55:19.099Z,0.11
2023-05-08T12:56:11.109Z,0.10
2023-05-08T12:57:15.094Z,0.11
2023-05-08T12:58:14.755Z,0.14
2023-05-08T12:59:11.090Z,0.13
2023-05-08T13:00:11.639Z,0.12
2023-05-08T13:01:13.196Z,0.14
2023-05-08T13:02:19.195Z,0.15
2023-05-08T13:03:11.165Z,0.16
2023-05-08T13:04:11.144Z,0.14
2023-05-08T13:05:11.092Z,0.17
2023-05-08T13:06:19.076Z,0.19
2023-05-08T13:07:11.063Z,0.19
2023-05-08T13:08:11.070Z,0.18
2023-05-08T13:09:15.068Z,0.17
2023-05-08T13:10:11.180Z,0.15
2023-05-08T13:11:11.067Z,0.16
2023-05-08T13:12:13.066Z,0.17
2023-05-08T13:13:11.116Z,0.18
2023-05-08T13:14:11.063Z,0.20
2023-05-08T13:15:11.103Z,0.19
2023-05-08T13:16:11.320Z,0.17
2023-05-08T13:17:11.060Z,0.17
2023-05-08T13:18:11.115Z,0.16